Time;durP1;ratioP1;P1;durP2;ratioP2;P2;SDS_P1;SDS_P2;PMS_P1;PMS_P2;Temp;Humidity;BMP_temperature;BMP_pressure;BME280_temperature;BME280_humidity;BME280_pressure;Samples;Min_cycle;Max_cycle;Signal;HPM_P1;HPM_P2
2021/03/17 00:01:41;;;;;;;0.30;0.30;;;;;;;24.19;49.24;102060.09;5092987;28;20028;-64
2021/03/17 00:04:06;;;;;;;0.50;0.50;;;;;;;24.19;49.34;102051.84;5092983;28;20389;-64
2021/03/17 00:06:31;;;;;;;0.60;0.60;;;;;;;24.15;48.50;102061.47;5092389;28;20481;-65
2021/03/17 00:08:56;;;;;;;0.70;0.50;;;;;;;24.16;49.06;102057.69;5092859;28;20057;-63
2021/03/17 00:11:22;;;;;;;0.40;0.40;;;;;;;24.12;48.97;102056.34;5092778;28;20031;-64
2021/03/17 00:13:47;;;;;;;0.60;0.50;;;;;;;24.14;49.39;102056.16;5092960;28;20485;-64
2021/03/17 00:16:13;;;;;;;0.60;0.40;;;;;;;24.14;48.95;102065.25;5092363;28;20413;-65
2021/03/17 00:18:38;;;;;;;0.30;0.30;;;;;;;24.13;49.05;102063.56;5092366;28;20042;-64
2021/03/17 00:21:03;;;;;;;0.68;0.45;;;;;;;24.05;49.16;102066.34;5092672;28;20020;-64
2021/03/17 00:23:29;;;;;;;0.40;0.38;;;;;;;24.03;48.94;102065.69;5074825;28;20027;-64
2021/03/17 00:25:54;;;;;;;0.50;0.50;;;;;;;24.03;48.75;102073.94;5074483;28;20106;-64
2021/03/17 00:28:19;;;;;;;0.20;0.20;;;;;;;24.05;48.39;102063.63;5092613;28;20020;-64
2021/03/17 00:30:44;;;;;;;0.32;0.28;;;;;;;23.98;48.29;102057.09;5092775;28;20032;-64
2021/03/17 00:33:13;;;;;;;0.43;0.30;;;;;;;24.00;48.26;102066.03;5092611;28;20437;-64
2021/03/17 00:35:39;;;;;;;0.63;0.55;;;;;;;24.01;48.40;102060.34;5092931;28;20038;-65
2021/03/17 00:38:05;;;;;;;0.73;0.52;;;;;;;24.01;48.09;102068.59;5074367;28;20031;-64
2021/03/17 00:40:31;;;;;;;0.55;0.50;;;;;;;24.02;48.94;102058.47;5092573;28;20028;-64
2021/03/17 00:42:56;;;;;;;0.52;0.40;;;;;;;23.98;49.25;102062.59;5073366;28;20062;-65
2021/03/17 00:45:22;;;;;;;0.38;0.38;;;;;;;23.99;47.73;102064.31;5092363;28;20032;-64
2021/03/17 00:47:47;;;;;;;0.20;0.20;;;;;;;23.94;47.97;102061.25;5092803;28;20017;-64
2021/03/17 00:50:14;;;;;;;0.40;0.40;;;;;;;23.89;47.73;102058.19;5092381;28;20032;-64
2021/03/17 00:52:41;;;;;;;0.40;0.30;;;;;;;23.92;48.19;102066.06;5092542;28;20054;-64
2021/03/17 00:55:08;;;;;;;1.27;0.47;;;;;;;23.91;47.55;102061.63;5070520;28;20044;-64
2021/03/17 00:57:33;;;;;;;0.40;0.40;;;;;;;23.88;47.82;102062.84;5072183;28;20024;-64
2021/03/17 00:59:58;;;;;;;0.35;0.35;;;;;;;23.93;48.41;102065.03;5071667;28;20032;-63
2021/03/17 01:02:24;;;;;;;0.40;0.40;;;;;;;23.95;48.08;102060.22;5071980;28;20471;-63
2021/03/17 01:04:49;;;;;;;0.30;0.30;;;;;;;23.91;49.29;102061.63;5072217;28;20029;-64
2021/03/17 01:07:19;;;;;;;0.65;0.45;;;;;;;23.91;49.31;102067.13;5072064;28;20031;-63
2021/03/17 01:09:44;;;;;;;0.40;0.30;;;;;;;23.94;49.84;102067.59;5072225;28;20016;-63
2021/03/17 01:12:10;;;;;;;0.40;0.30;;;;;;;23.93;50.06;102062.28;5071707;28;20040;-63
2021/03/17 01:14:37;;;;;;;0.30;0.30;;;;;;;23.82;49.97;102058.03;5074339;28;20036;-63
2021/03/17 01:17:03;;;;;;;0.88;0.40;;;;;;;23.88;49.85;102062.84;5075220;28;20025;-63
2021/03/17 01:19:29;;;;;;;0.73;0.60;;;;;;;23.88;49.85;102064.72;5075701;28;20532;-63
2021/03/17 01:21:54;;;;;;;2.25;0.60;;;;;;;23.86;49.77;102064.06;5075938;28;20066;-63
2021/03/17 01:24:19;;;;;;;0.40;0.30;;;;;;;23.88;49.69;102067.47;5075802;28;20029;-63
2021/03/17 01:26:44;;;;;;;0.43;0.30;;;;;;;23.88;49.43;102072.97;5075853;28;20198;-64
2021/03/17 01:29:10;;;;;;;0.40;0.40;;;;;;;23.85;49.46;102067.81;5075573;28;20016;-63
2021/03/17 01:31:35;;;;;;;0.68;0.40;;;;;;;23.90;49.78;102070.91;5075944;28;20032;-64
2021/03/17 01:34:00;;;;;;;0.52;0.45;;;;;;;23.87;50.20;102069.38;5075586;28;20044;-64
2021/03/17 01:36:25;;;;;;;0.50;0.50;;;;;;;23.86;49.82;102069.56;5075596;28;20032;-63
2021/03/17 01:38:51;;;;;;;0.25;0.22;;;;;;;23.86;49.50;102069.56;5075573;28;20107;-63
2021/03/17 01:41:16;;;;;;;0.28;0.28;;;;;;;23.82;49.28;102065.44;5075176;28;20024;-63
2021/03/17 01:43:42;;;;;;;1.73;0.30;;;;;;;23.84;49.16;102077.94;5075690;28;20029;-63
2021/03/17 01:46:07;;;;;;;0.63;0.52;;;;;;;23.75;48.77;102072.69;5075370;28;20139;-63
2021/03/17 01:48:32;;;;;;;0.20;0.20;;;;;;;23.79;48.54;102068.53;5075456;28;20044;-63
2021/03/17 01:50:58;;;;;;;0.73;0.40;;;;;;;23.82;48.71;102073.66;5075353;28;20020;-63
2021/03/17 01:53:30;;;;;;;0.28;0.28;;;;;;;23.77;48.54;102076.09;5079593;28;20398;-64
2021/03/17 01:55:56;;;;;;;0.32;0.30;;;;;;;23.78;48.25;102077.81;5077258;28;20024;-63
2021/03/17 01:58:22;;;;;;;0.30;0.30;;;;;;;23.81;48.18;102081.03;5095410;28;20103;-63
2021/03/17 02:00:47;;;;;;;0.50;0.50;;;;;;;23.79;48.71;102079.53;5095471;28;20054;-63
2021/03/17 02:03:12;;;;;;;0.40;0.30;;;;;;;23.79;48.94;102085.00;5095701;28;20024;-63
2021/03/17 02:05:41;;;;;;;0.20;0.20;;;;;;;23.76;48.44;102080.72;5095456;28;20115;-63
2021/03/17 02:08:18;;;;;;;0.40;0.30;;;;;;;23.77;48.40;102087.09;5095247;28;20051;-62
2021/03/17 02:10:44;;;;;;;0.40;0.40;;;;;;;23.74;48.32;102081.94;5095445;28;20051;-63
2021/03/17 02:13:16;;;;;;;0.47;0.30;;;;;;;23.70;47.93;102090.53;5094563;28;20442;-63
2021/03/17 02:16:09;;;;;;;0.13;0.10;;;;;;;23.66;48.73;102086.41;5094793;28;20059;-63
2021/03/17 02:18:34;;;;;;;0.52;0.45;;;;;;;23.73;47.90;102092.06;5076270;28;20079;-63
2021/03/17 02:21:14;;;;;;;0.57;0.37;;;;;;;23.68;47.82;102081.63;5094989;28;20067;-62
2021/03/17 02:23:53;;;;;;;0.30;0.20;;;;;;;23.72;47.78;102084.03;5095232;28;20256;-62
2021/03/17 02:26:46;;;;;;;0.25;0.25;;;;;;;23.73;47.79;102088.47;5094801;28;20024;-62
2021/03/17 02:29:43;;;;;;;0.20;0.20;;;;;;;23.70;48.42;102082.31;5094259;28;20020;-62
2021/03/17 02:32:11;;;;;;;0.38;0.38;;;;;;;23.69;48.74;102075.09;5074568;28;20383;-62
2021/03/17 02:34:41;;;;;;;0.55;0.50;;;;;;;23.68;48.05;102089.88;5075063;28;20087;-63
2021/03/17 02:37:12;;;;;;;0.40;0.30;;;;;;;23.68;47.89;102092.63;5074288;28;20032;-62
2021/03/17 02:39:42;;;;;;;0.52;0.20;;;;;;;23.63;47.92;102091.41;5074716;28;20024;-62
2021/03/17 02:42:16;;;;;;;0.10;0.10;;;;;;;23.63;47.96;102092.28;5074397;28;20036;-62
2021/03/17 02:44:49;;;;;;;0.30;0.30;;;;;;;23.65;48.06;102086.59;5074646;28;20546;-62
2021/03/17 02:47:16;;;;;;;0.30;0.30;;;;;;;23.60;47.78;102092.63;5074256;28;20036;-62
2021/03/17 02:49:43;;;;;;;0.35;0.35;;;;;;;23.64;47.51;102093.97;5056536;28;20078;-62
2021/03/17 02:52:10;;;;;;;0.25;0.20;;;;;;;23.64;47.66;102093.13;5074208;28;20022;-62
2021/03/17 02:54:37;;;;;;;0.22;0.20;;;;;;;23.66;47.76;102089.16;5074063;28;20044;-62
2021/03/17 02:57:23;;;;;;;0.40;0.20;;;;;;;23.67;48.16;102099.09;5073868;28;20016;-62
2021/03/17 02:59:54;;;;;;;0.20;0.20;;;;;;;23.64;47.55;102085.75;5074318;28;20067;-62
2021/03/17 03:02:21;;;;;;;0.10;0.10;;;;;;;23.64;47.54;102083.00;5073975;28;20028;-62
2021/03/17 03:04:49;;;;;;;0.25;0.25;;;;;;;23.59;47.13;102085.41;5073374;28;20028;-62
2021/03/17 03:07:14;;;;;;;0.20;0.13;;;;;;;23.55;47.79;102078.56;5073862;28;20031;-62
2021/03/17 03:09:41;;;;;;;0.30;0.30;;;;;;;23.56;48.45;102091.25;5074354;28;20024;-62
2021/03/17 03:12:07;;;;;;;0.40;0.10;;;;;;;23.59;48.36;102085.41;5055815;28;20020;-63
2021/03/17 03:14:34;;;;;;;0.30;0.30;;;;;;;23.56;48.20;102085.75;5073777;28;20021;-63
2021/03/17 03:17:03;;;;;;;0.30;0.20;;;;;;;23.57;49.01;102086.63;5073441;28;20048;-64
2021/03/17 03:19:35;;;;;;;0.70;0.40;;;;;;;23.59;48.94;102085.41;5073636;28;20032;-63
2021/03/17 03:22:01;;;;;;;0.35;0.28;;;;;;;23.61;49.48;102082.50;5073536;28;20025;-62
2021/03/17 03:24:28;;;;;;;0.30;0.30;;;;;;;23.66;49.64;102086.41;5055635;28;20020;-63
2021/03/17 03:26:56;;;;;;;0.20;0.20;;;;;;;23.59;49.92;102090.91;5073473;28;20059;-63
2021/03/17 03:29:21;;;;;;;0.30;0.30;;;;;;;23.64;50.24;102098.63;5076038;28;20561;-63
2021/03/17 03:31:48;;;;;;;0.20;0.20;;;;;;;23.62;50.03;102101.53;5093567;28;20115;-62
2021/03/17 03:34:15;;;;;;;0.20;0.20;;;;;;;23.56;50.34;102107.72;5093423;28;20047;-63
2021/03/17 03:36:42;;;;;;;0.43;0.40;;;;;;;23.55;49.63;102108.75;5093104;28;20071;-63
2021/03/17 03:39:07;;;;;;;0.30;0.20;;;;;;;23.58;49.37;102113.91;5092941;28;20024;-63
2021/03/17 03:41:33;;;;;;;0.43;0.40;;;;;;;23.57;49.53;102114.94;5075443;28;20024;-63
2021/03/17 03:43:58;;;;;;;0.30;0.30;;;;;;;23.57;49.30;102112.19;5093339;28;20103;-63
2021/03/17 03:46:23;;;;;;;0.40;0.30;;;;;;;23.55;49.51;102114.22;5093387;28;20020;-63
2021/03/17 03:48:49;;;;;;;0.20;0.20;;;;;;;23.61;48.86;102113.56;5093415;28;20016;-63
2021/03/17 03:51:18;;;;;;;0.32;0.22;;;;;;;23.58;49.41;102116.66;5093331;28;20058;-62
2021/03/17 03:54:04;;;;;;;0.25;0.25;;;;;;;23.59;49.20;102025.03;5093298;28;20124;-62
2021/03/17 03:56:37;;;;;;;0.30;0.20;;;;;;;23.56;49.29;102022.63;5093204;28;20110;-62
2021/03/17 03:59:14;;;;;;;0.20;0.20;;;;;;;23.57;48.79;102023.50;5092964;28;20077;-63
2021/03/17 04:01:48;;;;;;;0.10;0.10;;;;;;;23.59;48.69;102118.38;5072985;28;20024;-63
2021/03/17 04:04:17;;;;;;;;;;;;;;;23.56;48.91;102115.09;5073155;28;20020;-62
2021/03/17 04:06:55;;;;;;;0.50;0.30;;;;;;;23.51;48.52;102121.09;5072917;28;19908;-64
2021/03/17 04:09:30;;;;;;;0.20;0.20;;;;;;;23.53;48.05;102127.28;5073129;28;20186;-62
2021/03/17 04:12:00;;;;;;;;;;;;;;;23.55;48.09;102122.47;5073078;28;20534;-62
2021/03/17 04:14:31;;;;;;;0.20;0.10;;;;;;;23.54;48.06;102108.91;5072229;28;20351;-62
2021/03/17 04:17:22;;;;;;;0.30;0.30;;;;;;;23.54;48.28;102114.41;5072289;28;20032;-62
2021/03/17 04:19:50;;;;;;;0.50;0.30;;;;;;;23.57;48.70;102109.44;5072398;28;20020;-62
2021/03/17 04:22:17;;;;;;;0.20;0.20;;;;;;;23.56;48.84;102124.19;5072501;28;20536;-62
2021/03/17 04:24:43;;;;;;;0.20;0.20;;;;;;;23.55;48.99;102116.97;5072643;28;20353;-62
2021/03/17 04:27:11;;;;;;;0.63;0.20;;;;;;;23.53;48.19;102126.44;5072447;28;20056;-62
2021/03/17 04:29:39;;;;;;;0.28;0.25;;;;;;;23.52;48.06;102120.09;5090592;28;20032;-62
2021/03/17 04:32:05;;;;;;;0.20;0.20;;;;;;;23.50;47.96;102118.50;5092615;28;20030;-62
2021/03/17 04:34:31;;;;;;;0.20;0.20;;;;;;;23.51;48.74;102121.09;5092941;28;20027;-62
2021/03/17 04:36:57;;;;;;;0.20;0.20;;;;;;;23.49;48.67;102117.66;5092331;28;20023;-62
2021/03/17 04:39:24;;;;;;;0.30;0.20;;;;;;;23.48;48.08;102126.94;5092775;28;20038;-62
2021/03/17 04:41:56;;;;;;;0.57;0.32;;;;;;;23.50;48.25;102124.88;5092602;28;20042;-62
2021/03/17 04:44:22;;;;;;;0.20;0.20;;;;;;;23.53;48.68;102127.28;5092535;28;20479;-62
2021/03/17 04:46:49;;;;;;;0.63;0.40;;;;;;;23.51;48.99;102140.28;5092552;28;20031;-62
2021/03/17 04:49:15;;;;;;;0.20;0.20;;;;;;;23.50;48.56;102141.34;5093960;28;20020;-62
2021/03/17 04:51:41;;;;;;;0.30;0.22;;;;;;;23.53;48.76;102141.00;5096497;28;20032;-62
2021/03/17 04:54:07;;;;;;;0.20;0.20;;;;;;;23.47;48.22;102146.31;5096482;28;20072;-62
2021/03/17 04:56:33;;;;;;;0.20;0.20;;;;;;;23.48;48.44;102148.03;5096584;28;20062;-62
2021/03/17 04:59:01;;;;;;;0.20;0.20;;;;;;;23.43;48.25;102148.56;5096036;28;20356;-62
2021/03/17 05:01:27;;;;;;;0.45;0.30;;;;;;;23.62;47.24;102150.94;5095655;28;20421;-62
2021/03/17 05:03:53;;;;;;;0.10;0.10;;;;;;;24.66;44.63;102149.84;5096554;28;20459;-62
2021/03/17 05:06:18;;;;;;;0.20;0.20;;;;;;;24.95;44.05;102142.75;5096355;28;20028;-62
2021/03/17 05:08:45;;;;;;;0.20;0.20;;;;;;;25.03;43.82;102140.00;5096569;28;20383;-62
2021/03/17 05:11:13;;;;;;;0.20;0.20;;;;;;;25.31;43.65;102149.34;5096319;28;20028;-62
2021/03/17 05:13:40;;;;;;;0.30;0.30;;;;;;;25.44;43.35;102144.06;5096496;28;20046;-62
2021/03/17 05:16:06;;;;;;;0.30;0.30;;;;;;;25.58;43.46;102155.28;5096124;28;20525;-62
2021/03/17 05:18:32;;;;;;;0.20;0.20;;;;;;;25.59;43.68;102160.59;5095730;28;20668;-62
2021/03/17 05:20:59;;;;;;;0.20;0.20;;;;;;;25.59;43.59;102159.75;5096110;28;20024;-63
2021/03/17 05:23:24;;;;;;;0.20;0.20;;;;;;;25.70;43.63;102142.81;5078140;28;20062;-62
2021/03/17 05:25:52;;;;;;;0.57;0.30;;;;;;;25.74;43.74;102156.00;5095466;28;20024;-62
2021/03/17 05:28:18;;;;;;;0.20;0.20;;;;;;;25.82;43.82;102163.31;5095687;28;20024;-62
2021/03/17 05:30:48;;;;;;;0.20;0.20;;;;;;;25.95;44.02;102169.00;5095918;28;20374;-62
2021/03/17 05:33:16;;;;;;;0.73;0.30;;;;;;;25.99;44.07;102173.09;5096233;28;20047;-62
2021/03/17 05:35:41;;;;;;;0.17;0.10;;;;;;;26.00;44.69;102172.03;5096062;28;20103;-62
2021/03/17 05:38:07;;;;;;;0.30;0.30;;;;;;;26.10;44.86;102177.28;5095738;28;20522;-62
2021/03/17 05:40:34;;;;;;;0.20;0.20;;;;;;;26.25;44.37;102191.06;5095684;28;20065;-62
2021/03/17 05:43:02;;;;;;;0.30;0.20;;;;;;;26.30;45.07;102186.66;5095671;28;20020;-62
2021/03/17 05:45:28;;;;;;;0.30;0.30;;;;;;;26.44;45.06;102182.22;5096093;28;20024;-63
2021/03/17 05:47:54;;;;;;;0.30;0.30;;;;;;;26.46;44.88;102190.28;5095605;28;20017;-62
2021/03/17 05:50:22;;;;;;;0.10;0.10;;;;;;;26.37;45.26;102184.00;5095661;28;20020;-62
2021/03/17 05:52:47;;;;;;;0.20;0.20;;;;;;;26.29;45.39;102197.88;5095630;28;20024;-62
2021/03/17 05:55:15;;;;;;;0.22;0.22;;;;;;;26.30;45.12;102199.59;5077218;28;20429;-62
2021/03/17 05:57:40;;;;;;;0.35;0.20;;;;;;;26.24;45.41;102201.22;5095292;28;20055;-62
2021/03/17 06:00:10;;;;;;;0.17;0.17;;;;;;;26.23;45.33;102196.75;5076538;28;20061;-62
2021/03/17 06:02:37;;;;;;;0.10;0.10;;;;;;;26.20;44.60;102190.75;5094304;28;20056;-62
2021/03/17 06:05:03;;;;;;;0.10;0.10;;;;;;;26.30;44.40;102191.31;5095219;28;20490;-62
2021/03/17 06:07:37;;;;;;;0.20;0.20;;;;;;;26.28;44.41;102191.50;5095502;28;20032;-62
2021/03/17 06:10:03;;;;;;;0.10;0.10;;;;;;;26.26;44.00;102192.75;5095228;28;20054;-62
2021/03/17 06:12:30;;;;;;;0.28;0.28;;;;;;;26.33;43.70;102193.69;5095205;28;20060;-62
2021/03/17 06:14:56;;;;;;;0.45;0.20;;;;;;;26.28;43.31;102187.91;5095156;28;20070;-62
2021/03/17 06:17:24;;;;;;;0.10;0.10;;;;;;;26.44;43.58;102186.88;5095252;28;20020;-62
2021/03/17 06:20:03;;;;;;;0.20;0.20;;;;;;;26.54;43.08;102187.41;5095136;28;20587;-63
2021/03/17 06:22:28;;;;;;;0.25;0.22;;;;;;;26.64;42.90;102197.09;5095093;28;20475;-62
2021/03/17 06:24:55;;;;;;;0.20;0.20;;;;;;;26.75;43.69;102189.34;5094953;28;20043;-62
2021/03/17 06:27:20;;;;;;;0.22;0.22;;;;;;;26.60;43.49;102195.78;5094692;28;20042;-63
2021/03/17 06:29:46;;;;;;;0.15;0.10;;;;;;;26.53;43.80;102199.47;5094793;28;20032;-63
2021/03/17 06:32:12;;;;;;;0.35;0.32;;;;;;;26.53;43.98;102199.47;5094811;28;20066;-62
2021/03/17 06:34:47;;;;;;;0.13;0.13;;;;;;;26.51;43.68;102202.44;5094912;28;20024;-62
2021/03/17 06:37:13;;;;;;;0.35;0.35;;;;;;;26.44;43.65;102201.50;5094627;28;20038;-62
2021/03/17 06:39:38;;;;;;;0.20;0.20;;;;;;;26.38;43.12;102191.25;5094906;28;20398;-62
2021/03/17 06:42:04;;;;;;;0.20;0.10;;;;;;;26.41;43.48;102199.16;5094501;28;20053;-62
2021/03/17 06:44:31;;;;;;;0.25;0.22;;;;;;;26.38;43.29;102200.38;5076488;28;20471;-61
2021/03/17 06:47:18;;;;;;;0.17;0.17;;;;;;;26.44;43.27;102212.53;5094445;28;20051;-61
2021/03/17 06:49:46;;;;;;;0.20;0.20;;;;;;;26.48;42.60;102201.97;5094626;28;20360;-62
2021/03/17 06:52:38;;;;;;;0.50;0.30;;;;;;;26.51;43.25;102216.22;5094350;28;20069;-61
2021/03/17 06:55:03;;;;;;;0.28;0.20;;;;;;;26.50;43.08;102206.25;5093321;28;20040;-62
2021/03/17 06:57:28;;;;;;;0.10;0.10;;;;;;;26.45;43.28;102202.38;5093512;28;20028;-63
2021/03/17 06:59:53;;;;;;;0.22;0.20;;;;;;;26.46;43.13;102223.38;5092065;28;20378;-62
2021/03/17 07:02:19;;;;;;;0.25;0.20;;;;;;;26.47;43.57;102227.84;5094218;28;20024;-61
2021/03/17 07:04:52;;;;;;;0.10;0.10;;;;;;;26.32;43.67;102219.56;5096302;28;20105;-62
2021/03/17 07:07:20;;;;;;;0.10;0.10;;;;;;;26.35;42.83;102214.53;5100642;28;20478;-63
2021/03/17 07:09:58;;;;;;;0.20;0.20;;;;;;;26.33;43.01;102221.25;5105132;28;20035;-62
2021/03/17 07:12:30;;;;;;;0.30;0.28;;;;;;;26.42;42.44;102222.06;5098159;28;20069;-61
2021/03/17 07:15:07;;;;;;;0.30;0.17;;;;;;;26.19;43.62;102222.13;5097340;28;20050;-62
2021/03/17 07:17:32;;;;;;;0.73;0.35;;;;;;;24.95;45.00;102228.03;5098762;28;20042;-62
2021/03/17 07:19:58;;;;;;;0.52;0.28;;;;;;;25.63;45.16;102222.53;5091375;28;20112;-62
2021/03/17 07:22:25;;;;;;;1.40;0.50;;;;;;;25.60;43.55;102219.28;5091486;28;20032;-60
2021/03/17 07:24:54;;;;;;;1.10;0.40;;;;;;;25.47;43.37;102226.28;5090596;28;20493;-63
2021/03/17 07:27:25;;;;;;;2.95;0.63;;;;;;;25.49;43.46;102229.69;5094501;28;20023;-63
2021/03/17 07:29:59;;;;;;;1.63;0.80;;;;;;;25.37;45.38;102233.09;5089340;28;20028;-63
2021/03/17 07:32:25;;;;;;;;;;;;;;;25.34;44.45;102234.31;5092589;28;20042;-59
2021/03/17 07:34:50;;;;;;;1.50;0.90;;;;;;;25.22;44.64;102233.03;5090173;28;19912;-60
2021/03/17 07:37:16;;;;;;;2.60;1.40;;;;;;;25.24;46.41;102230.97;5091306;28;20534;-62
2021/03/17 07:39:42;;;;;;;59.75;38.75;;;;;;;25.32;48.32;102239.13;5090976;28;20035;-63
2021/03/17 07:42:13;;;;;;;179.23;110.85;;;;;;;25.29;49.00;102242.28;5089739;28;20030;-63
2021/03/17 07:44:40;;;;;;;153.15;105.20;;;;;;;25.39;49.92;102233.78;5091137;28;20028;-61
2021/03/17 07:47:07;;;;;;;102.85;76.78;;;;;;;25.28;48.26;102236.94;5091190;28;20028;-61
2021/03/17 07:49:35;;;;;;;77.00;55.10;;;;;;;25.27;48.90;102241.59;5091139;28;20047;-60
2021/03/17 07:52:03;;;;;;;51.72;37.67;;;;;;;25.30;48.76;102235.72;5098331;28;20066;-60
2021/03/17 07:54:29;;;;;;;33.47;25.08;;;;;;;25.21;46.90;102225.84;5102547;28;20541;-59
2021/03/17 07:56:59;;;;;;;21.67;16.70;;;;;;;25.30;45.92;102235.72;5090566;28;20024;-59
2021/03/17 07:59:25;;;;;;;17.08;13.60;;;;;;;25.38;45.44;102230.16;5091846;28;20031;-60
2021/03/17 08:01:52;;;;;;;16.63;12.43;;;;;;;25.38;45.76;102232.91;5092276;28;20058;-60
2021/03/17 08:04:18;;;;;;;11.20;9.32;;;;;;;25.38;47.06;102238.41;5092084;28;20034;-59
2021/03/17 08:06:44;;;;;;;9.43;8.35;;;;;;;25.42;46.23;102238.91;5080619;28;20032;-60
2021/03/17 08:09:10;;;;;;;9.38;7.50;;;;;;;25.44;46.52;102242.31;5107262;28;20073;-60
2021/03/17 08:11:36;;;;;;;8.07;6.65;;;;;;;25.39;46.19;102242.03;5094779;28;20034;-59
2021/03/17 08:14:02;;;;;;;8.80;6.72;;;;;;;25.43;45.77;102252.47;5074400;28;20070;-60
2021/03/17 08:16:33;;;;;;;8.13;5.75;;;;;;;25.39;45.64;102251.16;5092368;28;20031;-60
2021/03/17 08:18:58;;;;;;;6.68;5.03;;;;;;;25.48;45.21;102249.16;5092120;28;20055;-60
2021/03/17 08:21:43;;;;;;;5.85;4.30;;;;;;;25.53;45.25;102251.34;5091864;28;20078;-59
2021/03/17 08:24:08;;;;;;;5.25;4.32;;;;;;;25.58;44.23;102255.28;5092104;28;20394;-60
2021/03/17 08:26:43;;;;;;;5.18;4.13;;;;;;;25.61;44.99;102243.03;5092082;28;20054;-60
2021/03/17 08:29:13;;;;;;;3.63;3.13;;;;;;;25.69;44.74;102251.25;5090601;28;20051;-60
2021/03/17 08:31:38;;;;;;;6.78;3.83;;;;;;;25.63;44.13;102262.97;5092315;28;20028;-59
2021/03/17 08:34:19;;;;;;;7.05;4.38;;;;;;;25.71;45.08;102258.31;5091469;28;20070;-59
2021/03/17 08:36:49;;;;;;;5.43;3.10;;;;;;;25.66;44.94;102265.34;5071719;28;20024;-60
2021/03/17 08:39:37;;;;;;;4.65;3.35;;;;;;;25.66;45.36;102273.63;5081522;28;20113;-59
2021/03/17 08:42:04;;;;;;;5.25;3.00;;;;;;;25.73;44.54;102258.13;5090924;28;20028;-59
2021/03/17 08:44:43;;;;;;;3.03;2.40;;;;;;;25.77;45.46;102270.47;5091856;28;20038;-59
2021/03/17 08:47:22;;;;;;;4.43;2.90;;;;;;;25.76;44.50;102279.78;5090635;28;20024;-59
2021/03/17 08:49:52;;;;;;;4.47;2.85;;;;;;;25.73;44.59;102271.88;5078916;28;20024;-59
2021/03/17 08:52:21;;;;;;;5.20;2.50;;;;;;;25.81;44.62;102280.06;5088047;28;20360;-59
2021/03/17 08:55:14;;;;;;;5.05;2.42;;;;;;;25.91;45.36;102283.41;5090909;28;20044;-59
2021/03/17 08:57:59;;;;;;;3.85;2.35;;;;;;;25.92;44.17;102279.59;5067861;28;20075;-60
2021/03/17 09:00:44;;;;;;;3.78;2.45;;;;;;;25.97;44.82;102281.78;5089648;28;20028;-59
2021/03/17 09:03:29;;;;;;;4.57;1.98;;;;;;;25.91;45.46;102283.41;5102145;28;20114;-60
2021/03/17 09:06:14;;;;;;;4.68;2.47;;;;;;;25.84;45.83;102282.44;5090948;28;20028;-59
2021/03/17 09:08:53;;;;;;;4.28;2.40;;;;;;;25.89;45.42;102290.16;5091341;28;20479;-60
2021/03/17 09:11:31;;;;;;;3.05;1.98;;;;;;;25.90;44.50;102287.22;5072194;28;20035;-59
2021/03/17 09:14:00;;;;;;;3.13;1.88;;;;;;;25.92;44.77;102301.66;5087903;28;20475;-60
2021/03/17 09:16:27;;;;;;;3.67;1.88;;;;;;;25.94;44.59;102294.06;5085807;28;20024;-60
2021/03/17 09:19:13;;;;;;;3.92;1.80;;;;;;;25.94;44.16;102302.31;5091466;28;20028;-61
2021/03/17 09:21:41;;;;;;;3.75;1.67;;;;;;;26.03;43.93;102298.44;5090581;28;20039;-60
2021/03/17 09:24:32;;;;;;;2.85;1.60;;;;;;;26.01;44.44;102306.03;5085720;28;20107;-61
2021/03/17 09:27:01;;;;;;;3.88;1.70;;;;;;;26.17;43.77;102301.38;5089013;28;20036;-61
2021/03/17 09:29:27;;;;;;;3.42;2.13;;;;;;;26.31;44.05;102287.63;5075269;28;20105;-61
2021/03/17 09:31:53;;;;;;;2.28;1.90;;;;;;;26.39;44.04;102292.22;5091305;28;20411;-61
2021/03/17 09:34:33;;;;;;;4.30;1.70;;;;;;;26.56;43.72;102295.66;5091733;28;20036;-61
2021/03/17 09:37:07;;;;;;;3.97;1.70;;;;;;;26.54;44.02;102312.41;5095768;28;20027;-61
2021/03/17 09:39:37;;;;;;;2.90;1.60;;;;;;;26.44;44.96;102300.78;5095681;28;20027;-60
2021/03/17 09:42:03;;;;;;;2.80;1.75;;;;;;;26.38;44.66;102318.94;5094527;28;20032;-61
2021/03/17 09:44:29;;;;;;;3.55;1.50;;;;;;;26.39;45.23;102297.75;5094388;28;20418;-60
2021/03/17 09:46:55;;;;;;;4.70;1.98;;;;;;;26.38;46.20;102301.56;5094848;28;20024;-60
2021/03/17 09:49:23;;;;;;;3.70;1.63;;;;;;;26.32;45.65;102324.31;5093301;28;20137;-60
2021/03/17 09:51:57;;;;;;;4.30;1.70;;;;;;;26.32;46.73;102324.31;5093404;28;20328;-61
2021/03/17 09:54:25;;;;;;;2.85;1.73;;;;;;;26.40;46.00;102326.19;5090388;28;20048;-62
2021/03/17 09:56:55;;;;;;;4.55;2.05;;;;;;;26.37;45.97;102336.53;5094040;28;20486;-61
2021/03/17 09:59:35;;;;;;;4.32;2.15;;;;;;;26.40;46.15;102332.53;5093444;28;20031;-61
2021/03/17 10:02:17;;;;;;;4.55;1.85;;;;;;;26.45;45.63;102335.59;5091140;28;20434;-61
2021/03/17 10:04:50;;;;;;;5.43;2.40;;;;;;;26.50;45.74;102333.09;5090692;28;20486;-61
2021/03/17 10:07:19;;;;;;;4.93;2.20;;;;;;;26.51;46.03;102339.47;5091592;28;20028;-60
2021/03/17 10:09:44;;;;;;;5.85;2.58;;;;;;;26.47;46.52;102344.53;5089471;28;20455;-61
2021/03/17 10:12:16;;;;;;;5.03;2.10;;;;;;;26.43;46.24;102354.22;5091390;28;20102;-61
2021/03/17 10:14:46;;;;;;;3.78;2.35;;;;;;;26.44;46.61;102344.91;5076332;28;20418;-60
2021/03/17 10:17:14;;;;;;;2.72;1.50;;;;;;;26.40;46.46;102359.25;5060338;28;20058;-61
2021/03/17 10:19:40;;;;;;;3.47;2.08;;;;;;;26.38;45.83;102352.03;5094955;28;20023;-61
2021/03/17 10:22:08;;;;;;;5.63;2.08;;;;;;;26.45;45.76;102352.13;5094025;28;20513;-60
2021/03/17 10:24:43;;;;;;;3.03;1.70;;;;;;;26.45;45.72;102359.53;5093698;28;20035;-60
2021/03/17 10:27:14;;;;;;;5.38;2.20;;;;;;;26.49;46.28;102363.63;5075573;28;20020;-61
2021/03/17 10:29:40;;;;;;;3.92;1.90;;;;;;;26.48;45.74;102367.44;5092705;28;20058;-60
2021/03/17 10:32:07;;;;;;;4.30;1.67;;;;;;;26.50;45.61;102363.44;5092045;28;20028;-61
2021/03/17 10:34:33;;;;;;;3.25;1.60;;;;;;;26.53;45.63;102365.81;5090680;28;20028;-60
2021/03/17 10:36:59;;;;;;;3.42;1.67;;;;;;;26.66;44.38;102360.50;5093321;28;20032;-60
2021/03/17 10:39:26;;;;;;;3.35;1.67;;;;;;;26.78;44.53;102362.78;5092984;28;20024;-60
2021/03/17 10:41:51;;;;;;;4.07;1.63;;;;;;;26.76;45.49;102359.38;5092390;28;20028;-60
2021/03/17 10:44:19;;;;;;;4.95;1.65;;;;;;;26.87;44.91;102361.63;5092584;28;20038;-60
2021/03/17 10:47:03;;;;;;;3.55;1.33;;;;;;;26.96;44.37;102354.97;5092860;28;20418;-60
2021/03/17 10:49:30;;;;;;;4.32;1.92;;;;;;;26.79;45.16;102358.97;5093359;28;20027;-63
2021/03/17 10:51:57;;;;;;;2.53;1.55;;;;;;;26.75;44.97;102363.16;5093786;28;20077;-61
2021/03/17 10:54:35;;;;;;;4.40;1.77;;;;;;;26.68;44.91;102363.91;5092303;28;20111;-61
2021/03/17 10:57:01;;;;;;;3.17;1.88;;;;;;;26.65;44.73;102358.78;5092004;28;20449;-61
2021/03/17 10:59:32;;;;;;;3.75;1.90;;;;;;;26.65;45.27;102363.44;5092769;28;20116;-61
2021/03/17 11:02:16;;;;;;;3.53;1.58;;;;;;;26.65;44.91;102361.53;5090579;28;20056;-61
2021/03/17 11:05:06;;;;;;;4.05;1.65;;;;;;;26.72;44.59;102369.94;5091127;28;20081;-61
2021/03/17 11:07:54;;;;;;;4.00;2.08;;;;;;;26.65;44.41;102369.81;5090311;28;20079;-61
2021/03/17 11:10:43;;;;;;;3.42;1.55;;;;;;;26.69;44.91;102375.81;5089836;28;20089;-61
2021/03/17 11:13:08;;;;;;;2.72;1.42;;;;;;;26.75;44.70;102377.81;5091667;28;20034;-62
2021/03/17 11:15:35;;;;;;;2.37;1.40;;;;;;;26.76;44.54;102364.88;5093279;28;20024;-61
2021/03/17 11:18:01;;;;;;;3.35;1.45;;;;;;;26.72;44.68;102363.56;5093416;28;20281;-61
2021/03/17 11:20:26;;;;;;;2.75;1.73;;;;;;;26.74;44.57;102358.69;5093572;28;20051;-62
2021/03/17 11:22:53;;;;;;;2.53;1.27;;;;;;;26.68;45.45;102363.91;5093947;28;20024;-61
2021/03/17 11:25:26;;;;;;;3.33;1.77;;;;;;;26.64;44.96;102373.63;5092480;28;20020;-61
2021/03/17 11:27:52;;;;;;;2.80;1.40;;;;;;;26.62;44.93;102374.88;5093146;28;20382;-61
2021/03/17 11:30:18;;;;;;;2.83;1.13;;;;;;;26.64;44.90;102373.63;5092822;28;20023;-61
2021/03/17 11:32:44;;;;;;;4.30;1.80;;;;;;;26.67;44.20;102372.38;5090897;28;20108;-61
2021/03/17 11:35:11;;;;;;;3.88;1.40;;;;;;;26.67;44.39;102373.25;5093542;28;20101;-61